KOKC/OKC METAR and TAF weather

Enter ICAO airport designator
Station Type Date Time Source
KOKC METAR 2022/05/23 14:52 UTC NOAA

KOKC 231452Z 10011KT 5SM -TSRA BR BKN010CB BKN023 OVC041 11/11 A3015 RMK AO2 LTG DSNT ALQDS RAB13 PRESFR SLP204 OCNL LTGICCG OHD-ALQDS TS OHD-ALQDS MOV NE P0010 60011 T01110111 58008


Station Type Date Time Source
KOKC Decoded METAR 2022/05/23 14:52 UTC NOAA

WILL ROGERS WORLD AIRPORT, OK, United States (KOKC) 35-23N 97-36W 390M
May 23, 2022 - 10:52 AM EDT / 2022.05.23 1452 UTC
Wind: from the E (100 degrees) at 13 MPH (11 KT):0
Visibility: 5 mile(s):0
Sky conditions: overcast
Weather: light rain with thunder; mist; Cumulonimbus clouds, lightning observed
Precipitation last hour: 0.10 inches
Temperature: 52.0 F (11.1 C)
Dew Point: 52.0 F (11.1 C)
Relative Humidity: 100%
Pressure (altimeter): 30.15 in. Hg (1020 hPa)
Pressure tendency: falling rapidly - 0.02 inches (0.8 hPa) lower than three hours ago
ob: KOKC 231452Z 10011KT 5SM -TSRA BR BKN010CB BKN023 OVC041 11/11 A3015 RMK AO2 LTG DSNT ALQDS RAB13 PRESFR SLP204 OCNL LTGICCG OHD-ALQDS TS OHD-ALQDS MOV NE P0010 60011 T01110111 58008
cycle: 15

Station Type Date Time Source
KOKC TAF 2022/05/23 15:51 UTC NOAA

KOKC 231447Z 2315/2412 09009KT P6SM OVC015
TEMPO 2315/2317 4SM -TSRA BR OVC008CB
FM231700 13008KT 6SM BR OVC008
TEMPO 2317/2320 4SM -TSRA BR BKN005 OVC025CB
FM240100 11008KT 6SM BR OVC009
TEMPO 2408/2412 3SM TSRA SCT009 OVC015CB

Example: see airport list